sensor_id;sensor_type;location;lat;lon;timestamp;pressure;altitude;pressure_sealevel;temperature;humidity
61757;BME280;57225;61.460;24.060;2023-02-14T00:00:55;100875.78;;;0.51;79.88
61757;BME280;57225;61.460;24.060;2023-02-14T00:03:39;100882.69;;;0.40;80.41
61757;BME280;57225;61.460;24.060;2023-02-14T00:06:24;100892.69;;;0.36;80.62
61757;BME280;57225;61.460;24.060;2023-02-14T00:09:14;100884.06;;;0.20;82.18
61757;BME280;57225;61.460;24.060;2023-02-14T00:11:59;100900.13;;;0.13;83.50
61757;BME280;57225;61.460;24.060;2023-02-14T00:14:43;100896.72;;;0.08;82.72
61757;BME280;57225;61.460;24.060;2023-02-14T00:17:46;100904.19;;;0.16;82.10
61757;BME280;57225;61.460;24.060;2023-02-14T00:20:31;100909.31;;;0.09;82.58
61757;BME280;57225;61.460;24.060;2023-02-14T00:23:15;100920.94;;;0.14;82.57
61757;BME280;57225;61.460;24.060;2023-02-14T00:25:59;100921.06;;;0.09;82.92
61757;BME280;57225;61.460;24.060;2023-02-14T00:28:44;100939.75;;;0.07;82.72
61757;BME280;57225;61.460;24.060;2023-02-14T00:31:29;100941.13;;;0.18;81.81
61757;BME280;57225;61.460;24.060;2023-02-14T00:34:15;100940.13;;;0.14;82.63
61757;BME280;57225;61.460;24.060;2023-02-14T00:37:00;100939.00;;;0.15;81.90
61757;BME280;57225;61.460;24.060;2023-02-14T00:39:44;100932.56;;;0.20;81.99
61757;BME280;57225;61.460;24.060;2023-02-14T00:42:29;100944.00;;;0.13;82.56
61757;BME280;57225;61.460;24.060;2023-02-14T00:45:13;100943.38;;;0.16;82.49
61757;BME280;57225;61.460;24.060;2023-02-14T00:48:01;100949.16;;;0.15;82.23
61757;BME280;57225;61.460;24.060;2023-02-14T00:50:46;100947.81;;;0.04;83.17
61757;BME280;57225;61.460;24.060;2023-02-14T00:53:30;100959.13;;;-0.12;83.81
61757;BME280;57225;61.460;24.060;2023-02-14T00:56:16;100971.53;;;-0.14;84.18
61757;BME280;57225;61.460;24.060;2023-02-14T00:59:01;100976.22;;;-0.15;84.12
61757;BME280;57225;61.460;24.060;2023-02-14T01:01:45;100970.22;;;-0.39;85.25
61757;BME280;57225;61.460;24.060;2023-02-14T01:04:30;100984.81;;;-0.44;85.65
61757;BME280;57225;61.460;24.060;2023-02-14T01:07:14;100995.47;;;-0.56;87.00
61757;BME280;57225;61.460;24.060;2023-02-14T01:09:58;101008.69;;;-0.58;87.08
61757;BME280;57225;61.460;24.060;2023-02-14T01:12:43;101024.81;;;-0.70;88.11
61757;BME280;57225;61.460;24.060;2023-02-14T01:15:28;101020.56;;;-0.76;88.03
61757;BME280;57225;61.460;24.060;2023-02-14T01:18:14;101028.16;;;-0.73;87.98
61757;BME280;57225;61.460;24.060;2023-02-14T01:21:21;101032.53;;;-0.72;87.68
61757;BME280;57225;61.460;24.060;2023-02-14T01:24:06;101020.97;;;-0.83;88.11
61757;BME280;57225;61.460;24.060;2023-02-14T01:26:50;101034.34;;;-0.81;89.48
61757;BME280;57225;61.460;24.060;2023-02-14T01:29:35;101043.56;;;-0.77;88.89
61757;BME280;57225;61.460;24.060;2023-02-14T01:32:19;101039.41;;;-0.74;88.61
61757;BME280;57225;61.460;24.060;2023-02-14T01:35:04;101033.53;;;-0.82;89.09
61757;BME280;57225;61.460;24.060;2023-02-14T01:37:48;101021.97;;;-0.92;89.18
61757;BME280;57225;61.460;24.060;2023-02-14T01:40:33;101047.13;;;-0.90;90.31
61757;BME280;57225;61.460;24.060;2023-02-14T01:43:17;101051.16;;;-0.88;89.79
61757;BME280;57225;61.460;24.060;2023-02-14T01:46:02;101048.13;;;-0.86;89.57
61757;BME280;57225;61.460;24.060;2023-02-14T01:48:47;101055.81;;;-0.88;89.72
61757;BME280;57225;61.460;24.060;2023-02-14T01:51:32;101062.50;;;-0.94;90.31
61757;BME280;57225;61.460;24.060;2023-02-14T01:54:18;101073.84;;;-1.01;90.60
61757;BME280;57225;61.460;24.060;2023-02-14T01:57:07;101079.53;;;-0.97;90.20
61757;BME280;57225;61.460;24.060;2023-02-14T01:59:56;101079.53;;;-0.97;90.46
61757;BME280;57225;61.460;24.060;2023-02-14T02:03:03;101093.00;;;-1.01;90.74
61757;BME280;57225;61.460;24.060;2023-02-14T02:05:52;101096.97;;;-0.93;89.92
61757;BME280;57225;61.460;24.060;2023-02-14T02:08:42;101094.31;;;-0.98;90.38
61757;BME280;57225;61.460;24.060;2023-02-14T02:11:29;101097.06;;;-0.98;90.57
61757;BME280;57225;61.460;24.060;2023-02-14T02:14:20;101102.44;;;-0.93;90.07
61757;BME280;57225;61.460;24.060;2023-02-14T02:27:20;101116.59;;;-1.05;91.19
61757;BME280;57225;61.460;24.060;2023-02-14T02:30:44;101131.19;;;-1.09;91.18
61757;BME280;57225;61.460;24.060;2023-02-14T02:43:56;101148.78;;;-1.48;94.22
61757;BME280;57225;61.460;24.060;2023-02-14T02:46:41;101154.41;;;-1.58;94.90
61757;BME280;57225;61.460;24.060;2023-02-14T02:49:58;101144.72;;;-1.50;94.43
61757;BME280;57225;61.460;24.060;2023-02-14T02:53:32;101154.63;;;-1.54;94.62
61757;BME280;57225;61.460;24.060;2023-02-14T02:56:21;101153.00;;;-1.55;94.37
61757;BME280;57225;61.460;24.060;2023-02-14T02:59:29;101143.78;;;-1.59;94.52
61757;BME280;57225;61.460;24.060;2023-02-14T03:02:21;101142.22;;;-1.47;94.05
61757;BME280;57225;61.460;24.060;2023-02-14T03:05:08;101148.50;;;-1.46;93.15
61757;BME280;57225;61.460;24.060;2023-02-14T03:07:52;101138.00;;;-1.58;93.78
61757;BME280;57225;61.460;24.060;2023-02-14T03:10:38;101160.31;;;-1.51;93.39
61757;BME280;57225;61.460;24.060;2023-02-14T03:13:34;101163.66;;;-1.54;94.31
61757;BME280;57225;61.460;24.060;2023-02-14T03:16:40;101165.03;;;-1.56;93.82
61757;BME280;57225;61.460;24.060;2023-02-14T03:19:50;101189.72;;;-1.62;95.03
61757;BME280;57225;61.460;24.060;2023-02-14T03:23:10;101187.44;;;-1.73;95.27
61757;BME280;57225;61.460;24.060;2023-02-14T03:34:54;101222.13;;;-1.92;96.10
61757;BME280;57225;61.460;24.060;2023-02-14T03:40:53;101237.53;;;-1.83;96.11
61757;BME280;57225;61.460;24.060;2023-02-14T03:43:45;101225.81;;;-1.83;96.01
61757;BME280;57225;61.460;24.060;2023-02-14T03:46:39;101236.69;;;-1.78;95.84
61757;BME280;57225;61.460;24.060;2023-02-14T03:49:29;101224.41;;;-1.81;95.40
61757;BME280;57225;61.460;24.060;2023-02-14T03:52:15;101230.34;;;-1.74;95.30
61757;BME280;57225;61.460;24.060;2023-02-14T03:55:03;101228.34;;;-1.68;94.44
61757;BME280;57225;61.460;24.060;2023-02-14T03:57:54;101227.81;;;-1.70;94.75
61757;BME280;57225;61.460;24.060;2023-02-14T04:00:41;101242.09;;;-1.73;94.93
61757;BME280;57225;61.460;24.060;2023-02-14T04:03:27;101235.06;;;-1.79;95.62
61757;BME280;57225;61.460;24.060;2023-02-14T04:06:15;101233.56;;;-1.90;96.29
61757;BME280;57225;61.460;24.060;2023-02-14T04:09:00;101243.97;;;-1.92;96.61
61757;BME280;57225;61.460;24.060;2023-02-14T04:11:44;101236.88;;;-1.93;96.42
61757;BME280;57225;61.460;24.060;2023-02-14T04:14:29;101240.31;;;-2.07;97.60
61757;BME280;57225;61.460;24.060;2023-02-14T04:17:14;101235.31;;;-2.23;99.29
61757;BME280;57225;61.460;24.060;2023-02-14T04:20:17;101220.72;;;-2.37;99.90
61757;BME280;57225;61.460;24.060;2023-02-14T04:23:02;101239.09;;;-2.43;100.00
61757;BME280;57225;61.460;24.060;2023-02-14T04:25:46;101241.28;;;-2.45;100.00
61757;BME280;57225;61.460;24.060;2023-02-14T04:28:31;101226.94;;;-2.56;100.00
61757;BME280;57225;61.460;24.060;2023-02-14T04:31:15;101238.03;;;-2.47;100.00
61757;BME280;57225;61.460;24.060;2023-02-14T04:34:00;101230.34;;;-2.45;100.00
61757;BME280;57225;61.460;24.060;2023-02-14T04:36:45;101244.94;;;-2.55;100.00
61757;BME280;57225;61.460;24.060;2023-02-14T04:39:29;101249.97;;;-2.67;100.00
61757;BME280;57225;61.460;24.060;2023-02-14T04:42:14;101234.75;;;-2.73;100.00
61757;BME280;57225;61.460;24.060;2023-02-14T04:44:58;101240.47;;;-2.74;100.00
61757;BME280;57225;61.460;24.060;2023-02-14T04:47:43;101246.75;;;-2.74;100.00
61757;BME280;57225;61.460;24.060;2023-02-14T04:50:27;101255.13;;;-2.65;100.00
61757;BME280;57225;61.460;24.060;2023-02-14T04:53:12;101252.09;;;-2.64;100.00
61757;BME280;57225;61.460;24.060;2023-02-14T04:55:56;101250.28;;;-2.45;100.00
61757;BME280;57225;61.460;24.060;2023-02-14T04:58:41;101252.78;;;-2.48;100.00
61757;BME280;57225;61.460;24.060;2023-02-14T05:01:25;101244.06;;;-2.50;100.00
61757;BME280;57225;61.460;24.060;2023-02-14T05:04:10;101221.59;;;-2.71;100.00
61757;BME280;57225;61.460;24.060;2023-02-14T05:06:54;101271.03;;;-2.44;100.00
61757;BME280;57225;61.460;24.060;2023-02-14T05:09:38;101271.03;;;-2.44;100.00
61757;BME280;57225;61.460;24.060;2023-02-14T05:12:23;101269.22;;;-2.53;100.00
61757;BME280;57225;61.460;24.060;2023-02-14T05:15:08;101258.38;;;-2.63;100.00
61757;BME280;57225;61.460;24.060;2023-02-14T05:17:52;101266.50;;;-2.58;100.00
61757;BME280;57225;61.460;24.060;2023-02-14T05:20:37;101272.56;;;-2.61;100.00
61757;BME280;57225;61.460;24.060;2023-02-14T05:23:21;101272.03;;;-2.63;100.00
61757;BME280;57225;61.460;24.060;2023-02-14T05:26:06;101288.97;;;-2.66;100.00
61757;BME280;57225;61.460;24.060;2023-02-14T05:28:50;101294.44;;;-2.66;100.00
61757;BME280;57225;61.460;24.060;2023-02-14T05:31:35;101297.72;;;-2.69;100.00
61757;BME280;57225;61.460;24.060;2023-02-14T05:34:19;101311.84;;;-2.62;100.00
61757;BME280;57225;61.460;24.060;2023-02-14T05:37:04;101319.44;;;-2.54;100.00
61757;BME280;57225;61.460;24.060;2023-02-14T05:39:49;101325.38;;;-2.47;100.00
61757;BME280;57225;61.460;24.060;2023-02-14T05:42:33;101332.78;;;-2.53;100.00
61757;BME280;57225;61.460;24.060;2023-02-14T05:45:19;101336.03;;;-2.51;100.00
61757;BME280;57225;61.460;24.060;2023-02-14T05:48:04;101344.00;;;-2.54;100.00
61757;BME280;57225;61.460;24.060;2023-02-14T05:50:49;101352.50;;;-2.61;100.00
61757;BME280;57225;61.460;24.060;2023-02-14T05:53:33;101356.06;;;-2.60;100.00
61757;BME280;57225;61.460;24.060;2023-02-14T05:56:18;101358.69;;;-2.50;100.00
61757;BME280;57225;61.460;24.060;2023-02-14T05:59:02;101362.03;;;-2.58;100.00
61757;BME280;57225;61.460;24.060;2023-02-14T06:01:47;101363.06;;;-2.49;100.00
61757;BME280;57225;61.460;24.060;2023-02-14T06:04:31;101369.38;;;-2.54;100.00
61757;BME280;57225;61.460;24.060;2023-02-14T06:07:16;101369.38;;;-2.54;100.00
61757;BME280;57225;61.460;24.060;2023-02-14T06:10:00;101369.13;;;-2.57;100.00
61757;BME280;57225;61.460;24.060;2023-02-14T06:12:47;101375.66;;;-2.53;100.00
61757;BME280;57225;61.460;24.060;2023-02-14T06:15:32;101371.78;;;-2.47;100.00
61757;BME280;57225;61.460;24.060;2023-02-14T06:18:16;101370.44;;;-2.50;100.00
61757;BME280;57225;61.460;24.060;2023-02-14T06:21:01;101367.09;;;-2.47;100.00
61757;BME280;57225;61.460;24.060;2023-02-14T06:23:45;101377.25;;;-2.47;100.00
61757;BME280;57225;61.460;24.060;2023-02-14T06:26:29;101370.66;;;-2.46;100.00
61757;BME280;57225;61.460;24.060;2023-02-14T06:29:15;101376.97;;;-2.51;100.00
61757;BME280;57225;61.460;24.060;2023-02-14T06:32:00;101363.34;;;-2.51;100.00
61757;BME280;57225;61.460;24.060;2023-02-14T06:34:48;101368.47;;;-2.44;100.00
61757;BME280;57225;61.460;24.060;2023-02-14T06:55:50;101374.84;;;-2.25;100.00
61757;BME280;57225;61.460;24.060;2023-02-14T06:58:35;101371.56;;;-2.22;100.00
61757;BME280;57225;61.460;24.060;2023-02-14T07:01:19;101369.59;;;-2.16;99.91
61757;BME280;57225;61.460;24.060;2023-02-14T07:04:04;101377.75;;;-2.11;99.84
61757;BME280;57225;61.460;24.060;2023-02-14T07:06:49;101374.72;;;-2.10;99.93
61757;BME280;57225;61.460;24.060;2023-02-14T07:09:33;101379.03;;;-2.04;99.50
61757;BME280;57225;61.460;24.060;2023-02-14T07:12:18;101370.50;;;-1.97;99.13
61757;BME280;57225;61.460;24.060;2023-02-14T07:15:02;101377.28;;;-1.94;98.94
61757;BME280;57225;61.460;24.060;2023-02-14T07:17:46;101374.50;;;-1.89;98.91
61757;BME280;57225;61.460;24.060;2023-02-14T07:20:31;101382.91;;;-1.81;98.07
61757;BME280;57225;61.460;24.060;2023-02-14T07:23:15;101384.53;;;-1.80;97.73
61757;BME280;57225;61.460;24.060;2023-02-14T07:26:00;101377.22;;;-1.84;98.07
61757;BME280;57225;61.460;24.060;2023-02-14T07:28:45;101373.72;;;-1.90;98.64
61757;BME280;57225;61.460;24.060;2023-02-14T07:31:32;101375.09;;;-1.92;98.77
61757;BME280;57225;61.460;24.060;2023-02-14T07:34:16;101373.34;;;-1.83;98.27
61757;BME280;57225;61.460;24.060;2023-02-14T07:37:01;101373.88;;;-1.81;98.12
61757;BME280;57225;61.460;24.060;2023-02-14T07:39:45;101380.41;;;-1.77;97.87
61757;BME280;57225;61.460;24.060;2023-02-14T07:42:30;101380.44;;;-1.82;98.01
61757;BME280;57225;61.460;24.060;2023-02-14T07:45:14;101374.63;;;-1.76;97.76
61757;BME280;57225;61.460;24.060;2023-02-14T07:47:58;101372.84;;;-1.62;96.84
61757;BME280;57225;61.460;24.060;2023-02-14T07:50:45;101377.31;;;-1.47;96.03
61757;BME280;57225;61.460;24.060;2023-02-14T07:53:29;101391.69;;;-1.36;95.38
61757;BME280;57225;61.460;24.060;2023-02-14T07:56:14;101392.69;;;-1.27;95.02
61757;BME280;57225;61.460;24.060;2023-02-14T07:58:59;101403.25;;;-1.20;94.30
61757;BME280;57225;61.460;24.060;2023-02-14T08:01:43;101403.69;;;-1.13;93.97
61757;BME280;57225;61.460;24.060;2023-02-14T08:04:27;101405.78;;;-1.05;93.58
61757;BME280;57225;61.460;24.060;2023-02-14T08:07:12;101398.13;;;-0.85;92.54
61757;BME280;57225;61.460;24.060;2023-02-14T08:09:56;101402.69;;;-0.61;91.01
61757;BME280;57225;61.460;24.060;2023-02-14T08:12:41;101401.03;;;-0.44;89.95
61757;BME280;57225;61.460;24.060;2023-02-14T08:15:44;101399.75;;;-0.14;88.32
61757;BME280;57225;61.460;24.060;2023-02-14T08:18:47;101405.84;;;-0.03;87.99
61757;BME280;57225;61.460;24.060;2023-02-14T08:21:31;101403.88;;;0.16;86.28
61757;BME280;57225;61.460;24.060;2023-02-14T08:24:16;101402.53;;;0.14;86.98
61757;BME280;57225;61.460;24.060;2023-02-14T08:27:01;101411.41;;;0.24;87.23
61757;BME280;57225;61.460;24.060;2023-02-14T08:29:45;101400.03;;;0.45;86.85
61757;BME280;57225;61.460;24.060;2023-02-14T08:32:30;101405.84;;;0.57;86.12
61757;BME280;57225;61.460;24.060;2023-02-14T08:35:15;101397.00;;;0.46;86.82
61757;BME280;57225;61.460;24.060;2023-02-14T08:38:00;101403.50;;;0.36;85.89
61757;BME280;57225;61.460;24.060;2023-02-14T08:40:44;101393.81;;;0.25;87.55
61757;BME280;57225;61.460;24.060;2023-02-14T08:43:29;101402.97;;;0.34;87.32
61757;BME280;57225;61.460;24.060;2023-02-14T08:46:13;101405.84;;;0.43;87.51
61757;BME280;57225;61.460;24.060;2023-02-14T08:48:59;101409.19;;;0.54;87.44
61757;BME280;57225;61.460;24.060;2023-02-14T08:51:44;101409.38;;;0.57;87.25
61757;BME280;57225;61.460;24.060;2023-02-14T08:54:29;101417.44;;;0.67;87.74
61757;BME280;57225;61.460;24.060;2023-02-14T08:57:13;101406.25;;;0.77;83.72
61757;BME280;57225;61.460;24.060;2023-02-14T08:59:58;101405.72;;;0.89;83.41
61757;BME280;57225;61.460;24.060;2023-02-14T09:02:43;101418.66;;;0.75;83.33
61757;BME280;57225;61.460;24.060;2023-02-14T09:05:27;101417.31;;;0.72;84.00
61757;BME280;57225;61.460;24.060;2023-02-14T09:08:12;101415.09;;;0.74;83.81
61757;BME280;57225;61.460;24.060;2023-02-14T09:10:56;101419.38;;;0.80;85.93
61757;BME280;57225;61.460;24.060;2023-02-14T09:13:42;101413.66;;;0.91;87.08
61757;BME280;57225;61.460;24.060;2023-02-14T09:16:26;101414.06;;;0.98;85.25
61757;BME280;57225;61.460;24.060;2023-02-14T09:19:10;101417.31;;;0.86;86.12
61757;BME280;57225;61.460;24.060;2023-02-14T09:21:55;101410.84;;;0.82;86.98
61757;BME280;57225;61.460;24.060;2023-02-14T09:24:39;101425.16;;;0.93;87.01
61757;BME280;57225;61.460;24.060;2023-02-14T09:27:24;101424.44;;;0.87;86.12
61757;BME280;57225;61.460;24.060;2023-02-14T09:30:10;101431.44;;;0.93;87.22
61757;BME280;57225;61.460;24.060;2023-02-14T09:32:54;101420.97;;;0.95;86.73
61757;BME280;57225;61.460;24.060;2023-02-14T09:35:39;101419.94;;;1.05;84.68
61757;BME280;57225;61.460;24.060;2023-02-14T09:38:42;101428.28;;;1.13;84.52
61757;BME280;57225;61.460;24.060;2023-02-14T09:47:14;101429.28;;;1.17;84.33
61757;BME280;57225;61.460;24.060;2023-02-14T09:50:09;101424.47;;;1.23;84.64
61757;BME280;57225;61.460;24.060;2023-02-14T09:53:01;101420.06;;;1.36;84.16
61757;BME280;57225;61.460;24.060;2023-02-14T09:55:47;101424.84;;;1.44;82.36
61757;BME280;57225;61.460;24.060;2023-02-14T09:58:36;101427.84;;;1.56;81.96
61757;BME280;57225;61.460;24.060;2023-02-14T10:01:36;101425.97;;;1.65;81.55
61757;BME280;57225;61.460;24.060;2023-02-14T10:04:53;101432.97;;;1.71;81.10
61757;BME280;57225;61.460;24.060;2023-02-14T10:11:07;101443.00;;;1.89;82.07
61757;BME280;57225;61.460;24.060;2023-02-14T10:14:13;101437.25;;;1.99;81.44
61757;BME280;57225;61.460;24.060;2023-02-14T10:17:05;101441.34;;;2.11;80.66
61757;BME280;57225;61.460;24.060;2023-02-14T10:19:58;101429.53;;;2.10;81.21
61757;BME280;57225;61.460;24.060;2023-02-14T10:22:52;101432.53;;;2.22;81.94
61757;BME280;57225;61.460;24.060;2023-02-14T10:25:46;101428.03;;;2.26;81.85
61757;BME280;57225;61.460;24.060;2023-02-14T10:28:49;101430.19;;;2.38;81.07
61757;BME280;57225;61.460;24.060;2023-02-14T10:31:56;101443.19;;;2.46;79.16
61757;BME280;57225;61.460;24.060;2023-02-14T10:34:46;101433.31;;;2.45;79.48
61757;BME280;57225;61.460;24.060;2023-02-14T10:40:40;101436.13;;;2.62;76.52
61757;BME280;57225;61.460;24.060;2023-02-14T10:43:43;101421.41;;;2.67;78.30
61757;BME280;57225;61.460;24.060;2023-02-14T10:46:43;101425.63;;;2.73;78.67
61757;BME280;57225;61.460;24.060;2023-02-14T10:53:25;101424.91;;;2.98;76.71
61757;BME280;57225;61.460;24.060;2023-02-14T10:56:14;101415.84;;;2.98;76.94
61757;BME280;57225;61.460;24.060;2023-02-14T11:02:37;101402.91;;;3.07;75.56
61757;BME280;57225;61.460;24.060;2023-02-14T11:05:41;101404.72;;;3.20;74.96
61757;BME280;57225;61.460;24.060;2023-02-14T11:08:38;101401.78;;;3.08;76.31
61757;BME280;57225;61.460;24.060;2023-02-14T11:11:30;101405.69;;;3.15;75.63
61757;BME280;57225;61.460;24.060;2023-02-14T11:17:30;101392.38;;;3.09;72.92
61757;BME280;57225;61.460;24.060;2023-02-14T11:23:17;101397.41;;;3.24;72.31
61757;BME280;57225;61.460;24.060;2023-02-14T11:26:02;101402.63;;;3.26;71.16
61757;BME280;57225;61.460;24.060;2023-02-14T11:28:56;101399.88;;;3.69;72.08
61757;BME280;57225;61.460;24.060;2023-02-14T11:31:42;101394.81;;;3.88;71.41
61757;BME280;57225;61.460;24.060;2023-02-14T11:37:24;101397.72;;;4.00;69.32
61757;BME280;57225;61.460;24.060;2023-02-14T11:40:31;101388.47;;;4.04;70.92
61757;BME280;57225;61.460;24.060;2023-02-14T11:43:19;101375.03;;;3.86;70.80
61757;BME280;57225;61.460;24.060;2023-02-14T11:49:31;101386.41;;;3.76;70.00
61757;BME280;57225;61.460;24.060;2023-02-14T11:52:16;101377.63;;;3.74;70.51
61757;BME280;57225;61.460;24.060;2023-02-14T11:55:03;101378.31;;;3.71;70.28
61757;BME280;57225;61.460;24.060;2023-02-14T11:57:48;101371.47;;;3.77;71.04
61757;BME280;57225;61.460;24.060;2023-02-14T12:00:33;101368.22;;;3.75;70.98
61757;BME280;57225;61.460;24.060;2023-02-14T12:03:18;101356.75;;;3.47;71.90
61757;BME280;57225;61.460;24.060;2023-02-14T12:06:03;101369.91;;;3.41;72.59
61757;BME280;57225;61.460;24.060;2023-02-14T12:08:47;101376.69;;;3.52;73.01
61757;BME280;57225;61.460;24.060;2023-02-14T12:11:32;101369.41;;;3.39;73.35
61757;BME280;57225;61.460;24.060;2023-02-14T12:14:21;101360.47;;;3.25;75.31
61757;BME280;57225;61.460;24.060;2023-02-14T12:17:13;101365.66;;;3.27;76.40
61757;BME280;57225;61.460;24.060;2023-02-14T12:20:08;101361.44;;;3.29;76.56
61757;BME280;57225;61.460;24.060;2023-02-14T12:23:00;101351.72;;;3.23;77.41
61757;BME280;57225;61.460;24.060;2023-02-14T12:26:30;101353.34;;;3.24;75.92
61757;BME280;57225;61.460;24.060;2023-02-14T12:29:39;101357.88;;;3.20;76.56
61757;BME280;57225;61.460;24.060;2023-02-14T12:32:28;101350.75;;;3.19;76.11
61757;BME280;57225;61.460;24.060;2023-02-14T12:35:18;101362.72;;;3.06;76.71
61757;BME280;57225;61.460;24.060;2023-02-14T12:53:29;101364.50;;;2.93;80.87
61757;BME280;57225;61.460;24.060;2023-02-14T13:02:39;101343.91;;;2.82;81.82
61757;BME280;57225;61.460;24.060;2023-02-14T13:11:33;101326.72;;;2.76;83.53
61757;BME280;57225;61.460;24.060;2023-02-14T13:14:47;101322.06;;;2.94;83.59
61757;BME280;57225;61.460;24.060;2023-02-14T13:20:52;101316.41;;;2.91;85.78
61757;BME280;57225;61.460;24.060;2023-02-14T13:23:43;101315.25;;;3.00;85.64
61757;BME280;57225;61.460;24.060;2023-02-14T13:26:32;101319.44;;;2.98;85.53
61757;BME280;57225;61.460;24.060;2023-02-14T13:29:21;101323.19;;;2.93;85.78
61757;BME280;57225;61.460;24.060;2023-02-14T13:32:11;101334.97;;;2.85;86.77
61757;BME280;57225;61.460;24.060;2023-02-14T13:34:57;101337.09;;;2.79;86.78
61757;BME280;57225;61.460;24.060;2023-02-14T13:37:45;101330.59;;;2.75;87.74
61757;BME280;57225;61.460;24.060;2023-02-14T13:40:33;101336.75;;;2.72;88.91
61757;BME280;57225;61.460;24.060;2023-02-14T13:43:44;101325.41;;;2.74;88.58
61757;BME280;57225;61.460;24.060;2023-02-14T13:49:28;101323.28;;;2.62;91.00
61757;BME280;57225;61.460;24.060;2023-02-14T13:52:44;101322.63;;;2.57;91.66
61757;BME280;57225;61.460;24.060;2023-02-14T13:55:35;101322.28;;;2.50;92.45
61757;BME280;57225;61.460;24.060;2023-02-14T13:58:25;101318.22;;;2.47;93.04
61757;BME280;57225;61.460;24.060;2023-02-14T14:01:40;101324.22;;;2.49;92.75
61757;BME280;57225;61.460;24.060;2023-02-14T14:04:32;101314.03;;;2.50;92.20
61757;BME280;57225;61.460;24.060;2023-02-14T14:07:26;101317.75;;;2.45;93.18
61757;BME280;57225;61.460;24.060;2023-02-14T14:10:13;101321.78;;;2.39;94.26
61757;BME280;57225;61.460;24.060;2023-02-14T14:19:41;101313.47;;;2.30;95.07
61757;BME280;57225;61.460;24.060;2023-02-14T14:22:28;101312.16;;;2.28;95.60
61757;BME280;57225;61.460;24.060;2023-02-14T14:25:32;101313.94;;;2.24;95.99
61757;BME280;57225;61.460;24.060;2023-02-14T14:28:19;101299.22;;;2.20;97.70
61757;BME280;57225;61.460;24.060;2023-02-14T14:31:11;101302.41;;;2.13;98.29
61757;BME280;57225;61.460;24.060;2023-02-14T14:33:58;101298.34;;;2.11;98.33
61757;BME280;57225;61.460;24.060;2023-02-14T14:36:44;101301.75;;;2.08;99.02
61757;BME280;57225;61.460;24.060;2023-02-14T14:39:30;101300.63;;;2.09;99.15
61757;BME280;57225;61.460;24.060;2023-02-14T14:42:15;101306.44;;;2.07;99.48
61757;BME280;57225;61.460;24.060;2023-02-14T14:45:02;101312.75;;;2.08;100.00
61757;BME280;57225;61.460;24.060;2023-02-14T14:47:48;101309.00;;;2.03;100.00
61757;BME280;57225;61.460;24.060;2023-02-14T14:50:35;101305.78;;;2.01;100.00
61757;BME280;57225;61.460;24.060;2023-02-14T14:53:46;101309.28;;;1.93;100.00
61757;BME280;57225;61.460;24.060;2023-02-14T14:56:37;101311.53;;;1.91;100.00
61757;BME280;57225;61.460;24.060;2023-02-14T14:59:33;101313.59;;;1.86;100.00
61757;BME280;57225;61.460;24.060;2023-02-14T15:02:25;101316.19;;;1.82;100.00
61757;BME280;57225;61.460;24.060;2023-02-14T15:05:23;101318.94;;;1.82;100.00
61757;BME280;57225;61.460;24.060;2023-02-14T15:08:21;101318.28;;;1.85;100.00
61757;BME280;57225;61.460;24.060;2023-02-14T15:11:26;101312.44;;;1.78;100.00
61757;BME280;57225;61.460;24.060;2023-02-14T15:14:34;101313.06;;;1.75;100.00
61757;BME280;57225;61.460;24.060;2023-02-14T15:17:28;101317.75;;;1.75;100.00
61757;BME280;57225;61.460;24.060;2023-02-14T15:20:17;101324.94;;;1.62;100.00
61757;BME280;57225;61.460;24.060;2023-02-14T15:23:03;101321.00;;;1.54;100.00
61757;BME280;57225;61.460;24.060;2023-02-14T15:25:48;101314.19;;;1.52;100.00
61757;BME280;57225;61.460;24.060;2023-02-14T15:28:34;101302.91;;;1.31;100.00
61757;BME280;57225;61.460;24.060;2023-02-14T15:31:19;101312.28;;;1.30;100.00
61757;BME280;57225;61.460;24.060;2023-02-14T15:34:04;101312.19;;;1.21;100.00
61757;BME280;57225;61.460;24.060;2023-02-14T15:36:50;101315.19;;;1.11;100.00
61757;BME280;57225;61.460;24.060;2023-02-14T15:39:45;101313.19;;;1.03;100.00
61757;BME280;57225;61.460;24.060;2023-02-14T15:42:32;101313.59;;;0.97;100.00
61757;BME280;57225;61.460;24.060;2023-02-14T15:48:16;101300.72;;;0.84;100.00
61757;BME280;57225;61.460;24.060;2023-02-14T15:51:01;101304.28;;;0.84;100.00
61757;BME280;57225;61.460;24.060;2023-02-14T15:53:53;101306.56;;;0.82;100.00
61757;BME280;57225;61.460;24.060;2023-02-14T15:56:43;101312.34;;;0.80;100.00
61757;BME280;57225;61.460;24.060;2023-02-14T15:59:33;101305.22;;;0.79;100.00
61757;BME280;57225;61.460;24.060;2023-02-14T16:02:32;101307.16;;;0.79;100.00
61757;BME280;57225;61.460;24.060;2023-02-14T16:05:24;101301.84;;;0.82;100.00
61757;BME280;57225;61.460;24.060;2023-02-14T16:08:38;101304.94;;;0.81;100.00
61757;BME280;57225;61.460;24.060;2023-02-14T16:11:32;101296.69;;;0.81;100.00
61757;BME280;57225;61.460;24.060;2023-02-14T16:14:28;101306.66;;;0.77;100.00
61757;BME280;57225;61.460;24.060;2023-02-14T16:17:31;101304.22;;;0.75;100.00
61757;BME280;57225;61.460;24.060;2023-02-14T16:20:37;101307.75;;;0.76;100.00
61757;BME280;57225;61.460;24.060;2023-02-14T16:23:27;101300.66;;;0.75;100.00
61757;BME280;57225;61.460;24.060;2023-02-14T16:26:11;101302.91;;;0.73;100.00
61757;BME280;57225;61.460;24.060;2023-02-14T16:28:56;101301.28;;;0.72;100.00
61757;BME280;57225;61.460;24.060;2023-02-14T16:31:47;101293.34;;;0.70;100.00
61757;BME280;57225;61.460;24.060;2023-02-14T16:34:32;101304.03;;;0.72;100.00
61757;BME280;57225;61.460;24.060;2023-02-14T16:40:10;101302.50;;;0.66;100.00
61757;BME280;57225;61.460;24.060;2023-02-14T16:42:56;101294.09;;;0.62;100.00
61757;BME280;57225;61.460;24.060;2023-02-14T16:45:42;101295.31;;;0.56;100.00